Time;durP1;ratioP1;P1;durP2;ratioP2;P2;SDS_P1;SDS_P2;PMS_P1;PMS_P2;Temp;Humidity;BMP_temperature;BMP_pressure;BME280_temperature;BME280_humidity;BME280_pressure;Samples;Min_cycle;Max_cycle;Signal;HPM_P1;HPM_P2
2021/06/13 00:02:00;;;;;;;0.10;0.10;;;20.70;56.20;;;;;;5020441;28;20045;-85
2021/06/13 00:04:26;;;;;;;0.32;0.32;;;20.70;56.90;;;;;;5019124;28;20029;-85
2021/06/13 00:06:53;;;;;;;0.35;0.30;;;20.60;57.60;;;;;;5027935;28;20037;-85
2021/06/13 00:09:21;;;;;;;0.57;0.22;;;20.70;57.70;;;;;;5012785;28;20040;-85
2021/06/13 00:11:48;;;;;;;0.10;0.10;;;20.60;58.20;;;;;;5034508;28;20759;-85
2021/06/13 00:14:16;;;;;;;0.20;0.20;;;20.70;58.10;;;;;;5017160;28;20437;-85
2021/06/13 00:16:43;;;;;;;0.38;0.20;;;20.60;58.50;;;;;;5024225;28;20042;-85
2021/06/13 00:19:10;;;;;;;0.15;0.15;;;20.90;57.90;;;;;;5039225;28;20518;-85
2021/06/13 00:21:37;;;;;;;;;;;20.60;59.00;;;;;;5022678;28;20010;-85
2021/06/13 00:24:03;;;;;;;;;;;20.30;59.90;;;;;;5015712;28;19913;-85
2021/06/13 00:26:29;;;;;;;0.20;0.20;;;20.80;58.20;;;;;;5027632;28;19913;-85
2021/06/13 00:28:56;;;;;;;0.08;0.08;;;20.40;60.00;;;;;;5038593;28;20041;-85
2021/06/13 00:31:23;;;;;;;0.20;0.10;;;20.70;59.70;;;;;;5023132;28;20040;-84
2021/06/13 00:33:50;;;;;;;;;;;20.20;61.00;;;;;;5018425;28;20040;-85
2021/06/13 00:36:17;;;;;;;0.65;0.17;;;20.30;60.50;;;;;;5019498;28;19956;-85
2021/06/13 00:38:43;;;;;;;0.22;0.22;;;20.10;61.90;;;;;;5030370;28;20064;-85
2021/06/13 00:41:10;;;;;;;0.73;0.65;;;19.90;63.40;;;;;;5036922;28;20087;-85
2021/06/13 00:43:37;;;;;;;0.43;0.30;;;20.10;62.40;;;;;;5022611;28;20022;-84
2021/06/13 00:46:03;;;;;;;0.50;0.47;;;20.00;64.10;;;;;;5017302;28;20033;-85
2021/06/13 00:48:30;;;;;;;0.13;0.13;;;20.00;64.10;;;;;;5020903;28;20044;-83
2021/06/13 00:50:57;;;;;;;;;;;20.40;62.20;;;;;;5024213;28;20434;-84
2021/06/13 00:53:25;;;;;;;0.30;0.30;;;20.10;63.80;;;;;;5021604;28;20378;-85
2021/06/13 00:55:52;;;;;;;0.22;0.22;;;20.10;64.80;;;;;;5031474;28;20025;-85
2021/06/13 00:58:18;;;;;;;0.20;0.20;;;19.80;65.80;;;;;;5020464;28;20084;-84
2021/06/13 01:00:45;;;;;;;0.63;0.32;;;20.20;64.10;;;;;;5018406;28;20112;-85
2021/06/13 01:03:12;;;;;;;0.25;0.15;;;19.90;65.80;;;;;;5017297;28;20418;-85
2021/06/13 01:05:38;;;;;;;0.15;0.15;;;19.70;67.40;;;;;;5011186;28;20080;-85
2021/06/13 01:08:23;;;;;;;;;;;19.70;67.50;;;;;;5011679;28;20121;-85
2021/06/13 01:11:22;;;;;;;0.10;0.10;;;19.90;67.80;;;;;;5024891;28;19910;-85
2021/06/13 01:14:07;;;;;;;0.10;0.10;;;19.80;68.70;;;;;;5018027;28;20511;-85
2021/06/13 01:17:00;;;;;;;0.28;0.28;;;19.50;69.60;;;;;;5025179;28;20108;-85
2021/06/13 01:19:48;;;;;;;0.15;0.15;;;19.50;70.00;;;;;;5010190;28;20419;-85
2021/06/13 01:22:26;;;;;;;0.22;0.22;;;19.40;71.30;;;;;;5018040;28;20048;-85
2021/06/13 01:25:14;;;;;;;0.00;0.00;;;19.50;71.10;;;;;;5026868;28;20053;-84
2021/06/13 01:28:03;;;;;;;0.20;0.20;;;19.30;72.30;;;;;;5017741;28;20578;-85
2021/06/13 01:30:32;;;;;;;0.50;0.30;;;19.40;71.90;;;;;;5018934;28;20456;-84
2021/06/13 01:33:07;;;;;;;0.20;0.20;;;19.50;72.40;;;;;;5011310;28;20029;-85
2021/06/13 01:35:35;;;;;;;0.13;0.13;;;19.50;72.90;;;;;;5022538;28;20014;-85
2021/06/13 01:38:03;;;;;;;0.30;0.30;;;19.40;72.50;;;;;;5016034;28;20080;-85
2021/06/13 01:40:33;;;;;;;0.30;0.30;;;19.20;73.60;;;;;;5026463;28;20033;-84
2021/06/13 01:43:01;;;;;;;0.10;0.10;;;19.30;74.30;;;;;;5022756;28;20041;-85
2021/06/13 01:45:32;;;;;;;0.60;0.60;;;19.40;73.90;;;;;;5019534;28;20021;-85
2021/06/13 01:47:59;;;;;;;0.10;0.10;;;19.20;74.20;;;;;;5016598;28;20450;-85
2021/06/13 01:50:28;;;;;;;0.65;0.30;;;19.10;75.10;;;;;;5019149;28;20080;-84
2021/06/13 01:52:59;;;;;;;0.38;0.38;;;19.00;75.40;;;;;;5021470;28;20026;-84
2021/06/13 01:55:26;;;;;;;2.05;0.75;;;18.80;76.70;;;;;;5020150;28;20036;-84
2021/06/13 01:57:54;;;;;;;0.10;0.10;;;18.80;77.80;;;;;;5023439;28;20843;-84
2021/06/13 02:00:20;;;;;;;0.10;0.10;;;18.80;77.60;;;;;;5023347;28;20033;-85
2021/06/13 02:02:52;;;;;;;0.22;0.10;;;18.90;78.10;;;;;;5029288;28;20598;-84
2021/06/13 02:05:21;;;;;;;0.20;0.20;;;18.90;78.10;;;;;;5037379;28;20824;-85
2021/06/13 02:07:48;;;;;;;0.20;0.20;;;19.00;77.70;;;;;;5020414;28;20460;-85
2021/06/13 02:10:18;;;;;;;0.28;0.28;;;18.90;78.30;;;;;;5027061;28;20028;-85
2021/06/13 02:12:46;;;;;;;0.20;0.20;;;18.90;78.60;;;;;;5022277;28;20029;-84
2021/06/13 02:15:15;;;;;;;0.05;0.05;;;18.90;79.00;;;;;;5022111;28;20033;-85
2021/06/13 02:17:47;;;;;;;0.10;0.10;;;18.90;79.80;;;;;;5016133;28;20060;-85
2021/06/13 02:20:17;;;;;;;0.50;0.50;;;18.80;80.60;;;;;;5015438;28;20029;-85
2021/06/13 02:22:46;;;;;;;0.22;0.22;;;18.80;79.90;;;;;;5019422;28;20034;-85
2021/06/13 02:25:13;;;;;;;0.10;0.10;;;18.80;79.90;;;;;;5021132;28;20027;-85
2021/06/13 02:27:40;;;;;;;0.65;0.65;;;18.60;80.40;;;;;;5026617;28;20022;-85
2021/06/13 02:30:09;;;;;;;0.20;0.20;;;18.70;80.90;;;;;;5015594;28;20037;-87
2021/06/13 02:32:36;;;;;;;0.28;0.25;;;18.60;81.90;;;;;;5016611;28;20533;-88
2021/06/13 02:35:05;;;;;;;0.20;0.20;;;18.50;82.40;;;;;;5021373;28;20045;-85
2021/06/13 02:37:33;;;;;;;0.15;0.15;;;18.50;82.70;;;;;;5012710;28;20037;-85
2021/06/13 02:40:00;;;;;;;0.40;0.40;;;18.40;83.20;;;;;;5037652;28;20037;-85
2021/06/13 02:42:26;;;;;;;;;;;18.40;83.60;;;;;;5020117;28;20025;-85
2021/06/13 02:44:53;;;;;;;0.63;0.40;;;18.40;84.20;;;;;;5020194;28;19944;-85
2021/06/13 02:47:19;;;;;;;0.82;0.60;;;18.20;86.30;;;;;;5024874;28;20438;-85
2021/06/13 02:49:46;;;;;;;0.63;0.40;;;18.10;87.00;;;;;;5018682;28;20568;-86
2021/06/13 02:52:19;;;;;;;0.20;0.20;;;18.10;87.30;;;;;;5021737;28;20087;-85
2021/06/13 02:54:48;;;;;;;0.20;0.20;;;17.90;88.40;;;;;;5016342;28;20033;-86
2021/06/13 02:57:40;;;;;;;0.50;0.50;;;18.00;88.70;;;;;;5016853;28;20499;-85
2021/06/13 03:00:10;;;;;;;0.20;0.20;;;18.10;88.90;;;;;;5018753;28;20403;-84
2021/06/13 03:02:42;;;;;;;0.10;0.10;;;18.00;89.60;;;;;;5015742;28;20054;-85
2021/06/13 03:05:09;;;;;;;0.28;0.28;;;17.80;90.10;;;;;;5027080;28;20061;-84
2021/06/13 03:07:37;;;;;;;0.35;0.35;;;17.70;91.30;;;;;;5016849;28;20108;-84
2021/06/13 03:10:06;;;;;;;0.10;0.10;;;17.50;92.00;;;;;;5020882;28;20025;-85
2021/06/13 03:12:32;;;;;;;0.28;0.28;;;17.40;92.40;;;;;;5025673;28;20022;-85
2021/06/13 03:15:00;;;;;;;0.23;0.23;;;17.40;93.00;;;;;;5023504;28;20034;-85
2021/06/13 03:17:28;;;;;;;0.55;0.35;;;17.40;93.20;;;;;;5030685;28;20030;-85
2021/06/13 03:19:56;;;;;;;0.35;0.35;;;17.40;99.60;;;;;;5027053;28;20032;-85
2021/06/13 03:22:23;;;;;;;0.63;0.35;;;17.30;93.90;;;;;;5023550;28;20034;-85
2021/06/13 03:24:51;;;;;;;0.40;0.38;;;17.40;93.70;;;;;;5010281;28;20022;-85
2021/06/13 03:27:19;;;;;;;0.22;0.22;;;17.40;94.10;;;;;;5017439;28;20029;-84
2021/06/13 03:29:48;;;;;;;0.68;0.40;;;17.20;94.50;;;;;;5030806;28;20882;-85
2021/06/13 03:32:17;;;;;;;0.30;0.30;;;17.30;94.50;;;;;;5023380;28;20033;-85
2021/06/13 03:34:45;;;;;;;0.15;0.15;;;17.40;99.90;;;;;;5017025;28;20059;-85
2021/06/13 03:37:13;;;;;;;0.38;0.22;;;17.20;95.20;;;;;;5029589;28;20127;-85
2021/06/13 03:39:45;;;;;;;0.30;0.30;;;17.10;95.50;;;;;;5016360;28;20550;-85
2021/06/13 03:42:13;;;;;;;0.20;0.20;;;17.50;95.00;;;;;;5007338;28;20079;-85
2021/06/13 03:44:42;;;;;;;0.38;0.38;;;17.40;95.00;;;;;;5022971;28;20597;-85
2021/06/13 03:47:11;;;;;;;0.63;0.40;;;17.30;95.70;;;;;;5020426;28;20041;-86
2021/06/13 03:49:39;;;;;;;0.43;0.20;;;17.20;95.80;;;;;;5024603;28;20411;-85
2021/06/13 03:52:07;;;;;;;0.30;0.30;;;17.10;96.70;;;;;;5014430;28;20022;-85
2021/06/13 03:54:35;;;;;;;0.30;0.30;;;17.20;96.30;;;;;;5009419;28;20030;-85
2021/06/13 03:57:07;;;;;;;0.10;0.10;;;17.30;96.10;;;;;;5017211;28;20042;-86
2021/06/13 03:59:36;;;;;;;0.68;0.43;;;17.10;96.60;;;;;;5008327;28;20022;-86
2021/06/13 04:02:05;;;;;;;2.75;1.83;;;17.00;97.10;;;;;;5012890;28;20059;-86
2021/06/13 04:04:44;;;;;;;0.20;0.20;;;17.10;97.20;;;;;;5014243;28;20507;-85
2021/06/13 04:07:11;;;;;;;0.10;0.10;;;17.10;97.50;;;;;;5018981;28;20022;-88
2021/06/13 04:09:39;;;;;;;0.85;0.85;;;17.10;97.50;;;;;;5021513;28;20113;-88
2021/06/13 04:12:13;;;;;;;0.30;0.30;;;17.00;97.80;;;;;;5020074;28;20034;-84
2021/06/13 04:14:39;;;;;;;0.10;0.10;;;17.20;97.70;;;;;;5024851;28;20053;-87
2021/06/13 04:17:06;;;;;;;0.20;0.20;;;17.10;97.60;;;;;;5020940;28;20057;-87
2021/06/13 04:19:33;;;;;;;0.70;0.38;;;17.20;97.90;;;;;;5027073;28;20033;-85
2021/06/13 04:22:00;;;;;;;1.20;0.63;;;17.50;97.90;;;;;;5020947;28;20026;-85
2021/06/13 04:24:26;;;;;;;0.65;0.32;;;17.50;97.90;;;;;;5023788;28;20503;-85
2021/06/13 04:26:55;;;;;;;0.40;0.40;;;17.80;97.30;;;;;;5017764;28;20038;-85
2021/06/13 04:29:21;;;;;;;0.40;0.40;;;18.00;96.40;;;;;;5014195;28;20057;-87
2021/06/13 04:31:47;;;;;;;0.37;0.37;;;18.20;95.70;;;;;;5040672;28;20510;-86
2021/06/13 04:34:12;;;;;;;0.50;0.50;;;18.50;95.60;;;;;;5019566;28;20037;-87
2021/06/13 04:36:38;;;;;;;0.20;0.20;;;19.00;94.50;;;;;;5022702;28;20117;-88
2021/06/13 04:39:05;;;;;;;0.00;0.00;;;19.30;93.20;;;;;;5021173;28;20398;-87
2021/06/13 04:41:34;;;;;;;0.32;0.32;;;19.60;92.70;;;;;;5025000;28;20594;-88
2021/06/13 04:44:00;;;;;;;0.10;0.10;;;19.70;92.30;;;;;;5021064;28;20034;-85
2021/06/13 04:46:28;;;;;;;;;;;19.90;91.10;;;;;;5029774;28;20025;-83
2021/06/13 04:48:55;;;;;;;3.30;0.30;;;19.80;91.50;;;;;;5018131;28;19917;-82
2021/06/13 04:51:21;;;;;;;;;;;19.30;91.80;;;;;;5020175;28;20075;-87
2021/06/13 04:53:51;;;;;;;0.00;0.00;;;19.40;92.00;;;;;;5023166;28;20332;-91
2021/06/13 04:57:04;;;;;;;0.70;0.70;;;19.80;90.80;;;;;;5018387;28;20063;-90
2021/06/13 04:59:30;;;;;;;0.10;0.10;;;20.40;90.10;;;;;;4966517;28;20038;-92
2021/06/13 05:01:55;;;;;;;0.07;0.07;;;21.00;85.90;;;;;;4990809;28;20022;-91
2021/06/13 05:04:21;;;;;;;0.00;0.00;;;21.50;83.90;;;;;;4991026;28;20265;-85
2021/06/13 05:06:47;;;;;;;5.60;0.90;;;22.60;79.70;;;;;;4991969;28;20117;-87
2021/06/13 05:09:13;;;;;;;0.20;0.20;;;23.00;77.90;;;;;;4990958;28;20045;-88
2021/06/13 05:11:39;;;;;;;0.10;0.10;;;23.50;75.60;;;;;;4991956;28;20039;-88
2021/06/13 05:14:06;;;;;;;0.15;0.15;;;25.00;67.60;;;;;;4991948;28;20411;-89
2021/06/13 05:16:32;;;;;;;2.38;0.35;;;26.40;62.30;;;;;;4992029;28;20551;-88
2021/06/13 05:18:58;;;;;;;0.85;0.30;;;26.10;57.60;;;;;;4988508;28;20113;-88
2021/06/13 05:21:24;;;;;;;0.05;0.05;;;25.80;57.50;;;;;;4990630;28;20027;-88
2021/06/13 05:23:49;;;;;;;0.08;0.08;;;25.70;62.50;;;;;;4987639;28;20458;-88
2021/06/13 05:26:15;;;;;;;0.20;0.20;;;25.20;62.30;;;;;;4987891;28;20042;-88
2021/06/13 05:28:41;;;;;;;0.40;0.22;;;25.30;61.70;;;;;;4987653;28;20034;-89
2021/06/13 05:31:07;;;;;;;0.00;0.00;;;25.30;59.60;;;;;;5016851;28;20119;-89
2021/06/13 05:33:35;;;;;;;0.10;0.10;;;25.00;62.70;;;;;;5025257;28;20033;-88
2021/06/13 05:36:01;;;;;;;0.68;0.52;;;24.40;63.10;;;;;;5030305;28;20053;-88
2021/06/13 05:38:28;;;;;;;;;;;24.90;61.30;;;;;;5019544;28;20072;-88
2021/06/13 05:40:54;;;;;;;0.98;0.30;;;25.30;59.50;;;;;;5016894;28;19958;-89
2021/06/13 05:43:19;;;;;;;0.30;0.25;;;26.10;57.40;;;;;;5023867;28;20116;-86
2021/06/13 05:45:46;;;;;;;0.10;0.10;;;26.00;55.60;;;;;;5026778;28;20120;-88
2021/06/13 05:48:12;;;;;;;0.13;0.13;;;25.70;59.10;;;;;;5030246;28;20625;-87
2021/06/13 05:50:38;;;;;;;;;;;24.60;58.70;;;;;;5045634;28;20021;-87
2021/06/13 05:53:07;;;;;;;0.25;0.25;;;25.00;60.70;;;;;;5030102;28;19912;-86
2021/06/13 05:55:33;;;;;;;0.00;0.00;;;24.70;60.50;;;;;;5029954;28;20017;-86
2021/06/13 05:57:59;;;;;;;0.25;0.25;;;25.20;60.80;;;;;;5045371;28;20022;-87
2021/06/13 06:00:30;;;;;;;0.10;0.10;;;25.20;58.50;;;;;;5029143;28;20040;-87
2021/06/13 06:02:56;;;;;;;0.30;0.30;;;24.50;61.70;;;;;;5028835;28;20053;-88
2021/06/13 06:05:23;;;;;;;0.00;0.00;;;24.90;60.40;;;;;;5011046;28;20022;-88
2021/06/13 06:07:50;;;;;;;0.15;0.10;;;25.00;60.60;;;;;;5025360;28;20025;-88
2021/06/13 06:10:17;;;;;;;0.10;0.10;;;24.90;60.30;;;;;;5026042;28;20018;-86
2021/06/13 06:12:43;;;;;;;0.93;0.75;;;24.40;60.50;;;;;;5025275;28;20030;-86
2021/06/13 06:15:12;;;;;;;0.00;0.00;;;25.60;59.20;;;;;;5033962;28;20494;-85
2021/06/13 06:17:38;;;;;;;0.35;0.15;;;24.90;58.40;;;;;;5028714;28;20033;-86
2021/06/13 06:20:05;;;;;;;;;;;25.90;57.00;;;;;;5027981;28;20033;-87
2021/06/13 06:22:30;;;;;;;0.13;0.13;;;26.10;54.20;;;;;;5027218;28;19917;-87
2021/06/13 06:24:56;;;;;;;0.10;0.10;;;25.90;56.30;;;;;;5027750;28;20025;-87
2021/06/13 06:27:22;;;;;;;0.13;0.10;;;25.40;57.60;;;;;;5015450;28;20034;-87
2021/06/13 06:29:48;;;;;;;0.00;0.00;;;25.20;58.00;;;;;;5024908;28;20084;-87
2021/06/13 06:32:14;;;;;;;0.17;0.08;;;25.10;59.30;;;;;;5009298;28;20053;-88
2021/06/13 06:34:40;;;;;;;0.17;0.17;;;26.20;57.20;;;;;;5008210;28;20753;-87
2021/06/13 06:37:07;;;;;;;0.45;0.35;;;26.20;53.30;;;;;;5024717;28;20040;-87
2021/06/13 06:39:32;;;;;;;;;;;26.10;56.70;;;;;;5010018;28;20025;-88
2021/06/13 06:41:58;;;;;;;0.20;0.20;;;26.80;54.80;;;;;;5024823;28;19960;-87
2021/06/13 06:44:24;;;;;;;;;;;26.30;53.20;;;;;;5025153;28;20080;-90
2021/06/13 06:46:50;;;;;;;0.30;0.28;;;26.80;54.00;;;;;;5028800;28;19913;-87
2021/06/13 06:49:16;;;;;;;0.00;0.00;;;27.40;52.50;;;;;;5027812;28;20561;-89
2021/06/13 06:51:42;;;;;;;0.20;0.20;;;26.10;52.30;;;;;;5027270;28;20095;-88
2021/06/13 06:54:08;;;;;;;0.08;0.08;;;27.30;51.70;;;;;;5028906;28;20037;-89
2021/06/13 06:56:34;;;;;;;0.00;0.00;;;27.00;51.80;;;;;;5044479;28;20040;-87
2021/06/13 06:59:00;;;;;;;;;;;26.90;50.80;;;;;;5029648;28;20029;-88
2021/06/13 07:01:26;;;;;;;0.20;0.20;;;27.40;51.80;;;;;;5028757;28;19909;-88
2021/06/13 07:03:52;;;;;;;0.00;0.00;;;27.70;49.40;;;;;;5028670;28;20073;-88
2021/06/13 07:06:18;;;;;;;;;;;27.90;48.50;;;;;;5029098;28;20032;-88
2021/06/13 07:08:43;;;;;;;0.30;0.30;;;29.00;58.90;;;;;;5027769;28;19912;-88
2021/06/13 07:11:09;;;;;;;;;;;29.10;47.90;;;;;;5044502;28;20025;-89
2021/06/13 07:13:36;;;;;;;0.03;0.03;;;28.40;46.90;;;;;;5027460;28;19909;-89
2021/06/13 07:16:02;;;;;;;0.15;0.10;;;28.30;48.60;;;;;;5021805;28;20037;-87
2021/06/13 07:18:31;;;;;;;0.00;0.00;;;29.20;43.30;;;;;;5034034;28;20490;-88
2021/06/13 07:20:58;;;;;;;0.10;0.10;;;30.50;44.20;;;;;;5010286;28;20061;-88
2021/06/13 07:23:24;;;;;;;0.08;0.08;;;30.20;43.70;;;;;;5010801;28;20483;-88
2021/06/13 07:25:50;;;;;;;0.10;0.10;;;30.40;40.40;;;;;;5027328;28;20029;-88
2021/06/13 07:28:17;;;;;;;0.20;0.20;;;30.20;39.50;;;;;;5019891;28;20076;-88
2021/06/13 07:30:47;;;;;;;0.10;0.10;;;30.90;39.80;;;;;;5020372;28;20044;-88
2021/06/13 07:33:13;;;;;;;0.00;0.00;;;31.90;37.70;;;;;;5013036;28;20107;-87
2021/06/13 07:35:39;;;;;;;0.20;0.20;;;31.90;36.50;;;;;;5024982;28;20376;-87
2021/06/13 07:38:05;;;;;;;0.22;0.22;;;31.80;34.60;;;;;;5029675;28;20840;-87
2021/06/13 07:40:32;;;;;;;0.20;0.10;;;30.50;38.30;;;;;;5019390;28;20032;-87
2021/06/13 07:42:58;;;;;;;0.13;0.13;;;30.50;38.90;;;;;;5037620;28;20026;-88
2021/06/13 07:45:25;;;;;;;0.20;0.20;;;31.40;36.90;;;;;;5018740;28;20700;-88
2021/06/13 07:47:51;;;;;;;0.10;0.10;;;31.60;36.40;;;;;;5015446;28;20029;-87
2021/06/13 07:50:19;;;;;;;0.10;0.10;;;31.90;33.70;;;;;;5025544;28;20121;-89
2021/06/13 07:52:45;;;;;;;0.10;0.10;;;31.40;35.10;;;;;;5022411;28;20033;-87
2021/06/13 07:55:13;;;;;;;0.10;0.10;;;31.30;33.90;;;;;;5017009;28;20121;-87
2021/06/13 07:57:40;;;;;;;0.10;0.10;;;31.60;45.60;;;;;;5042754;28;20029;-87
2021/06/13 08:00:12;;;;;;;0.10;0.10;;;30.90;34.50;;;;;;5016706;28;20059;-87
2021/06/13 08:02:39;;;;;;;0.10;0.10;;;31.00;33.30;;;;;;5022930;28;20041;-86
2021/06/13 08:05:25;;;;;;;0.03;0.03;;;32.30;30.90;;;;;;5027174;28;20018;-86
2021/06/13 08:08:00;;;;;;;0.10;0.10;;;32.20;42.90;;;;;;5019213;28;20044;-86
2021/06/13 08:10:27;;;;;;;0.17;0.10;;;31.40;29.80;;;;;;5017344;28;20426;-86
2021/06/13 08:13:01;;;;;;;0.15;0.15;;;31.60;28.00;;;;;;5024476;28;20654;-87
2021/06/13 08:15:29;;;;;;;0.10;0.10;;;32.00;28.40;;;;;;5020832;28;20055;-86
2021/06/13 08:17:55;;;;;;;0.10;0.10;;;32.40;28.80;;;;;;5022368;28;20105;-87
2021/06/13 08:20:21;;;;;;;0.00;0.00;;;32.00;30.20;;;;;;5022759;28;20029;-86
2021/06/13 08:22:47;;;;;;;0.20;0.20;;;33.00;27.20;;;;;;5015316;28;20069;-86
2021/06/13 08:25:14;;;;;;;0.15;0.15;;;33.60;25.20;;;;;;5037396;28;20046;-86
2021/06/13 08:27:41;;;;;;;0.10;0.10;;;33.20;21.10;;;;;;5025645;28;20026;-87
2021/06/13 08:30:11;;;;;;;0.05;0.05;;;33.70;22.80;;;;;;5019753;28;20132;-87
2021/06/13 08:32:37;;;;;;;0.65;0.65;;;33.60;23.30;;;;;;5021737;28;20030;-87
2021/06/13 08:35:06;;;;;;;0.08;0.00;;;34.70;20.30;;;;;;5019470;28;20032;-86
2021/06/13 08:37:32;;;;;;;0.08;0.08;;;35.40;19.10;;;;;;5027668;28;20025;-87
2021/06/13 08:40:00;;;;;;;0.13;0.13;;;36.40;15.30;;;;;;5026413;28;20025;-87
2021/06/13 08:42:27;;;;;;;0.10;0.10;;;34.20;14.40;;;;;;5025188;28;20427;-87
2021/06/13 08:44:55;;;;;;;0.10;0.10;;;35.10;14.50;;;;;;5006176;28;20029;-88
2021/06/13 08:47:23;;;;;;;0.68;0.30;;;37.10;13.30;;;;;;5024789;28;20033;-88
2021/06/13 08:49:50;;;;;;;0.00;0.00;;;35.70;16.70;;;;;;5026962;28;20035;-89
2021/06/13 08:52:16;;;;;;;0.08;0.08;;;34.80;14.00;;;;;;5021301;28;20037;-88
2021/06/13 08:54:43;;;;;;;0.80;0.22;;;37.50;11.20;;;;;;5018952;28;20111;-88
2021/06/13 08:57:10;;;;;;;0.20;0.20;;;35.90;10.10;;;;;;5023649;28;20116;-88
2021/06/13 08:59:37;;;;;;;0.10;0.10;;;36.80;10.90;;;;;;5014117;28;20033;-89
2021/06/13 09:02:05;;;;;;;0.10;0.10;;;35.00;8.50;;;;;;5021816;28;20053;-87
2021/06/13 09:04:34;;;;;;;0.00;0.00;;;38.60;5.30;;;;;;5010859;28;20047;-89
2021/06/13 09:07:08;;;;;;;0.00;0.00;;;37.90;9.10;;;;;;5015620;28;20022;-92
2021/06/13 09:09:35;;;;;;;0.00;0.00;;;37.10;4.90;;;;;;5022888;28;20036;-92
2021/06/13 09:12:06;;;;;;;0.05;0.05;;;37.40;7.80;;;;;;5028643;28;20072;-91
2021/06/13 09:15:04;;;;;;;0.20;0.10;;;37.10;8.10;;;;;;5029607;28;20068;-92
2021/06/13 09:17:32;;;;;;;0.10;0.10;;;35.40;6.60;;;;;;5027321;28;20045;-93
2021/06/13 09:20:24;;;;;;;0.00;0.00;;;36.50;8.30;;;;;;5029498;28;20041;-89
2021/06/13 09:23:09;;;;;;;0.00;0.00;;;35.80;9.20;;;;;;5033042;28;20030;-91
2021/06/13 09:25:41;;;;;;;0.00;0.00;;;38.50;2.20;;;;;;5022375;28;20101;-90
2021/06/13 09:28:17;;;;;;;0.25;0.25;;;39.00;1.00;;;;;;5041489;28;20025;-91
2021/06/13 09:30:46;;;;;;;0.00;0.00;;;37.10;4.90;;;;;;5021641;28;20055;-90
2021/06/13 09:33:15;;;;;;;0.17;0.15;;;34.40;6.40;;;;;;5026237;28;20026;-90
2021/06/13 09:35:43;;;;;;;0.00;0.00;;;35.30;4.50;;;;;;5034432;28;20037;-88
2021/06/13 09:38:10;;;;;;;0.10;0.10;;;36.10;2.80;;;;;;5023492;28;20068;-89
2021/06/13 09:40:38;;;;;;;13.80;1.65;;;34.70;6.30;;;;;;5022452;28;20033;-88
2021/06/13 09:43:12;;;;;;;0.10;0.10;;;34.20;5.70;;;;;;5015691;28;20033;-90
2021/06/13 09:45:39;;;;;;;0.25;0.22;;;35.20;6.20;;;;;;5020192;28;20049;-90
2021/06/13 09:48:08;;;;;;;4.60;0.98;;;34.90;5.80;;;;;;5011509;28;20037;-90
2021/06/13 09:50:45;;;;;;;0.20;0.20;;;36.60;3.20;;;;;;5034946;28;20577;-90
2021/06/13 09:53:34;;;;;;;1.20;0.80;;;35.70;3.10;;;;;;5019053;28;20036;-90
2021/06/13 09:56:06;;;;;;;3.15;0.28;;;35.00;3.90;;;;;;5009572;28;20048;-90
2021/06/13 09:58:34;;;;;;;0.35;0.22;;;35.60;4.00;;;;;;5012753;28;20025;-91
2021/06/13 10:01:10;;;;;;;1.25;0.35;;;34.80;3.00;;;;;;5012067;28;20109;-91
2021/06/13 10:03:37;;;;;;;;;;;36.20;1.70;;;;;;5016115;28;20079;-90
2021/06/13 10:06:08;;;;;;;0.45;0.30;;;35.70;3.50;;;;;;5030653;28;20379;-89
2021/06/13 10:08:35;;;;;;;0.10;0.10;;;37.20;1.00;;;;;;5019346;28;20029;-90
2021/06/13 10:11:03;;;;;;;0.55;0.25;;;36.20;1.00;;;;;;5022930;28;20060;-90
2021/06/13 10:13:39;;;;;;;0.22;0.20;;;36.60;1.00;;;;;;5018083;28;20072;-90
2021/06/13 10:16:06;;;;;;;0.00;0.00;;;37.00;1.00;;;;;;5027429;28;20064;-89
2021/06/13 10:18:32;;;;;;;0.20;0.20;;;38.20;1.00;;;;;;5017135;28;20026;-90
2021/06/13 10:21:10;;;;;;;0.00;0.00;;;37.10;1.00;;;;;;5015521;28;20031;-90
2021/06/13 10:23:40;;;;;;;0.00;0.00;;;36.40;6.20;;;;;;5023988;28;20034;-88
2021/06/13 10:26:07;;;;;;;0.10;0.10;;;35.10;1.00;;;;;;5018413;28;20030;-88
2021/06/13 10:28:34;;;;;;;0.10;0.10;;;37.40;1.00;;;;;;5020510;28;20022;-90
2021/06/13 10:31:01;;;;;;;0.65;0.10;;;37.00;1.00;;;;;;5026084;28;20028;-89
2021/06/13 10:33:28;;;;;;;0.10;0.10;;;36.50;1.00;;;;;;5017587;28;20112;-88
2021/06/13 10:36:01;;;;;;;0.10;0.10;;;36.30;1.00;;;;;;5013160;28;20030;-90
2021/06/13 10:38:29;;;;;;;0.10;0.10;;;36.90;1.00;;;;;;5014119;28;20037;-89
2021/06/13 10:40:56;;;;;;;0.10;0.08;;;37.30;1.00;;;;;;5021686;28;20034;-89
2021/06/13 10:43:24;;;;;;;0.00;0.00;;;36.80;1.00;;;;;;5023249;28;20084;-88
2021/06/13 10:45:51;;;;;;;0.25;0.25;;;36.10;1.00;;;;;;5020369;28;20411;-89
2021/06/13 10:48:39;;;;;;;0.25;0.25;;;36.20;1.00;;;;;;5015640;28;20068;-89
2021/06/13 10:51:33;;;;;;;0.00;0.00;;;36.30;1.00;;;;;;5019875;28;20021;-88
2021/06/13 10:54:20;;;;;;;0.25;0.25;;;39.70;1.00;;;;;;5020645;28;20048;-90
2021/06/13 10:56:48;;;;;;;0.17;0.17;;;36.10;1.00;;;;;;5021328;28;20100;-86
2021/06/13 10:59:18;;;;;;;0.10;0.10;;;37.40;1.00;;;;;;5025642;28;20025;-90
2021/06/13 11:02:19;;;;;;;0.20;0.00;;;36.10;1.00;;;;;;5013185;28;20036;-88
2021/06/13 11:04:51;;;;;;;0.10;0.10;;;38.40;1.00;;;;;;4974019;28;20038;-88
2021/06/13 11:07:39;;;;;;;0.20;0.20;;;41.70;1.00;;;;;;5001038;28;20022;-88
2021/06/13 11:10:05;;;;;;;0.00;0.00;;;40.50;1.00;;;;;;5005945;28;20018;-88
2021/06/13 11:12:38;;;;;;;;;;;40.40;1.00;;;;;;5001550;28;20034;-88
2021/06/13 11:15:04;;;;;;;1.23;0.13;;;39.10;1.00;;;;;;5001617;28;19909;-89
2021/06/13 11:17:51;;;;;;;0.00;0.00;;;40.20;1.00;;;;;;4990970;28;20024;-89
2021/06/13 11:20:44;;;;;;;0.03;0.03;;;37.20;1.00;;;;;;5000344;28;20508;-87
2021/06/13 11:23:22;;;;;;;0.10;0.10;;;37.10;1.00;;;;;;4998842;28;20021;-87
2021/06/13 11:25:50;;;;;;;0.13;0.13;;;36.40;1.00;;;;;;4995221;28;20022;-88
2021/06/13 11:28:27;;;;;;;0.20;0.20;;;39.30;1.00;;;;;;5012476;28;20115;-89
2021/06/13 11:30:59;;;;;;;0.32;0.32;;;34.60;1.00;;;;;;5000581;28;20030;-87
2021/06/13 11:33:48;;;;;;;0.17;0.17;;;32.40;1.00;;;;;;4999533;28;20053;-88
2021/06/13 11:36:22;;;;;;;4.28;1.40;;;31.90;13.20;;;;;;5003016;28;20025;-88
2021/06/13 11:38:52;;;;;;;0.00;0.00;;;31.10;5.40;;;;;;5005592;28;20058;-88
2021/06/13 11:41:45;;;;;;;0.28;0.28;;;30.00;7.00;;;;;;5003312;28;20030;-89
2021/06/13 11:44:20;;;;;;;0.00;0.00;;;29.60;8.10;;;;;;4984992;28;20411;-89
2021/06/13 11:46:51;;;;;;;0.00;0.00;;;29.90;7.10;;;;;;5012433;28;20061;-88
2021/06/13 11:49:20;;;;;;;0.10;0.10;;;30.60;7.30;;;;;;4993922;28;20081;-87
2021/06/13 11:52:03;;;;;;;0.20;0.20;;;30.90;7.70;;;;;;4996961;28;20499;-87
2021/06/13 11:54:41;;;;;;;0.20;0.20;;;29.80;10.10;;;;;;5011024;28;20515;-88
2021/06/13 11:57:31;;;;;;;0.00;0.00;;;30.00;9.10;;;;;;4999932;28;20468;-88
2021/06/13 12:00:14;;;;;;;0.25;0.20;;;29.80;8.40;;;;;;4998370;28;20387;-88
2021/06/13 12:02:40;;;;;;;0.30;0.30;;;30.40;10.30;;;;;;5003398;28;20030;-86
2021/06/13 12:05:06;;;;;;;;;;;29.60;9.40;;;;;;5036635;28;20518;-86
2021/06/13 12:07:41;;;;;;;0.57;0.22;;;29.50;10.80;;;;;;5024702;28;19920;-85
2021/06/13 12:10:27;;;;;;;0.20;0.07;;;29.30;19.90;;;;;;5019526;28;20029;-86
2021/06/13 12:13:10;;;;;;;0.00;0.00;;;29.00;12.10;;;;;;5024194;28;20080;-85
2021/06/13 12:15:37;;;;;;;0.10;0.10;;;29.10;12.00;;;;;;5027022;28;20030;-86
2021/06/13 12:18:13;;;;;;;0.00;0.00;;;29.20;12.90;;;;;;5029926;28;20040;-86
2021/06/13 12:20:39;;;;;;;0.10;0.10;;;29.50;12.70;;;;;;5010389;28;20373;-85
2021/06/13 12:23:12;;;;;;;0.20;0.20;;;29.30;11.90;;;;;;5012706;28;20017;-86
2021/06/13 12:28:35;;;;;;;0.10;0.10;;;29.60;12.70;;;;;;5015465;28;20088;-86
2021/06/13 12:31:05;;;;;;;0.20;0.20;;;29.60;12.20;;;;;;5017008;28;20095;-86
2021/06/13 12:33:42;;;;;;;0.00;0.00;;;29.50;11.30;;;;;;5040105;28;20083;-86
2021/06/13 12:36:14;;;;;;;0.30;0.30;;;29.60;11.40;;;;;;5027642;28;20033;-86
2021/06/13 12:38:46;;;;;;;0.00;0.00;;;29.70;11.10;;;;;;5019733;28;20025;-87
2021/06/13 12:41:13;;;;;;;0.10;0.10;;;29.30;11.20;;;;;;5031508;28;20021;-86
2021/06/13 12:43:49;;;;;;;0.10;0.10;;;29.50;12.10;;;;;;5018959;28;20030;-86
2021/06/13 12:46:15;;;;;;;;;;;29.20;13.00;;;;;;5031228;28;20104;-87
2021/06/13 12:48:42;;;;;;;0.10;0.10;;;29.10;12.80;;;;;;5026741;28;20012;-86
2021/06/13 12:51:09;;;;;;;0.35;0.03;;;29.40;12.80;;;;;;5028980;28;20052;-87
2021/06/13 12:53:43;;;;;;;0.38;0.38;;;29.40;12.60;;;;;;5019464;28;20013;-86
2021/06/13 12:56:09;;;;;;;0.25;0.25;;;29.30;12.90;;;;;;5029163;28;20096;-87
2021/06/13 12:58:40;;;;;;;;;;;29.40;12.70;;;;;;5022465;28;20047;-86
2021/06/13 13:01:12;;;;;;;1.10;0.15;;;29.50;11.90;;;;;;5042489;28;19940;-87
2021/06/13 13:03:46;;;;;;;0.00;0.00;;;29.60;21.10;;;;;;5021082;28;20057;-86
2021/06/13 13:06:14;;;;;;;0.00;0.00;;;29.90;12.60;;;;;;5018195;28;20029;-87
2021/06/13 13:08:46;;;;;;;1.45;0.20;;;30.00;12.20;;;;;;5021589;28;20021;-86
2021/06/13 13:11:21;;;;;;;0.00;0.00;;;29.90;11.70;;;;;;5016394;28;20402;-86
2021/06/13 13:13:55;;;;;;;0.45;0.45;;;29.60;11.90;;;;;;5018505;28;20062;-86